Time;durP1;ratioP1;P1;durP2;ratioP2;P2;SDS_P1;SDS_P2;PMS_P1;PMS_P2;Temp;Humidity;BMP_temperature;BMP_pressure;BME280_temperature;BME280_humidity;BME280_pressure;Samples;Min_cycle;Max_cycle;Signal;HPM_P1;HPM_P2
2023/11/09 00:01:18;;;;;;;3.65;1.35;;;12.70;99.90;;;;;;4265244;27;20103;-55
2023/11/09 00:03:20;;;;;;;5.15;1.45;;;12.70;99.90;;;;;;4264844;27;20051;-54
2023/11/09 00:05:22;;;;;;;2.78;1.00;;;12.70;99.90;;;;;;4265083;27;20043;-53
2023/11/09 00:07:28;;;;;;;3.33;1.48;;;12.60;99.90;;;;;;4265031;27;20466;-53
2023/11/09 00:09:33;;;;;;;5.05;1.80;;;12.70;99.90;;;;;;4264818;27;20116;-54
2023/11/09 00:11:35;;;;;;;3.50;1.48;;;12.70;99.90;;;;;;4265134;27;20538;-54
2023/11/09 00:13:37;;;;;;;4.65;1.50;;;12.70;99.90;;;;;;4264932;27;20047;-53
2023/11/09 00:15:39;;;;;;;2.72;1.20;;;12.80;99.90;;;;;;4265220;27;20481;-52
2023/11/09 00:17:41;;;;;;;6.03;1.23;;;12.70;99.90;;;;;;4265654;27;20126;-58
2023/11/09 00:19:43;;;;;;;3.63;1.45;;;12.80;99.90;;;;;;4265212;27;20091;-53
2023/11/09 00:21:46;;;;;;;3.67;1.45;;;12.80;99.90;;;;;;4265061;27;20051;-53
2023/11/09 00:23:49;;;;;;;3.88;1.17;;;12.80;99.90;;;;;;4265189;27;20122;-53
2023/11/09 00:25:52;;;;;;;1.73;1.17;;;12.80;99.90;;;;;;4264897;27;20051;-55
2023/11/09 00:27:54;;;;;;;6.47;1.30;;;12.80;99.90;;;;;;4264705;27;20046;-52
2023/11/09 00:29:56;;;;;;;4.13;1.05;;;12.80;99.90;;;;;;4264544;27;20133;-54
2023/11/09 00:31:59;;;;;;;4.35;1.40;;;12.80;99.90;;;;;;4265080;27;20047;-53
2023/11/09 00:34:02;;;;;;;2.50;1.05;;;12.80;99.90;;;;;;4264981;27;20050;-54
2023/11/09 00:36:05;;;;;;;3.03;1.10;;;12.70;99.90;;;;;;4264722;27;20047;-54
2023/11/09 00:38:08;;;;;;;2.45;0.90;;;12.60;99.90;;;;;;4264537;27;20070;-54
2023/11/09 00:40:12;;;;;;;3.88;1.00;;;12.60;99.90;;;;;;4264375;27;20035;-53
2023/11/09 00:42:15;;;;;;;1.40;1.17;;;12.60;99.90;;;;;;4264702;27;20054;-53
2023/11/09 00:44:17;;;;;;;2.20;0.80;;;12.60;99.90;;;;;;4264692;27;20086;-53
2023/11/09 00:46:19;;;;;;;2.33;0.93;;;12.60;99.90;;;;;;4264484;27;20122;-54
2023/11/09 00:48:22;;;;;;;2.75;0.85;;;12.60;99.90;;;;;;4264583;27;20114;-53
2023/11/09 00:50:24;;;;;;;2.38;1.10;;;12.50;99.90;;;;;;4264612;27;20054;-53
2023/11/09 00:52:26;;;;;;;2.25;0.98;;;12.50;99.90;;;;;;4264309;27;20051;-53
2023/11/09 00:54:28;;;;;;;4.25;1.10;;;12.50;99.90;;;;;;4264361;27;20420;-53
2023/11/09 00:56:32;;;;;;;2.67;1.00;;;12.50;99.90;;;;;;4264871;27;20046;-59
2023/11/09 00:58:34;;;;;;;1.83;0.88;;;12.60;99.90;;;;;;4264372;27;20046;-53
2023/11/09 01:00:36;;;;;;;3.05;1.13;;;12.50;99.90;;;;;;4264661;27;20404;-53
2023/11/09 01:02:39;;;;;;;1.25;0.93;;;12.50;99.90;;;;;;4264504;27;20075;-58
2023/11/09 01:04:41;;;;;;;2.03;0.90;;;12.40;99.90;;;;;;4264697;27;20051;-53
2023/11/09 01:06:43;;;;;;;2.13;0.93;;;12.40;99.90;;;;;;4264691;27;20039;-56
2023/11/09 01:08:45;;;;;;;2.00;1.05;;;12.40;99.90;;;;;;4264268;27;20050;-53
2023/11/09 01:10:47;;;;;;;3.17;0.90;;;12.30;99.90;;;;;;4264675;27;20055;-53
2023/11/09 01:12:51;;;;;;;2.28;0.70;;;12.40;99.90;;;;;;4264292;27;20042;-54
2023/11/09 01:14:53;;;;;;;1.95;0.98;;;12.40;99.90;;;;;;4264326;27;20066;-52
2023/11/09 01:16:55;;;;;;;2.92;0.70;;;12.40;99.90;;;;;;4264775;27;20103;-58
2023/11/09 01:18:57;;;;;;;1.90;1.02;;;12.30;99.90;;;;;;4264381;27;20043;-53
2023/11/09 01:21:00;;;;;;;2.88;1.15;;;12.30;99.90;;;;;;4264595;27;20046;-52
2023/11/09 01:23:02;;;;;;;1.80;0.90;;;12.20;99.90;;;;;;4264145;27;20047;-54
2023/11/09 01:25:07;;;;;;;2.13;0.93;;;12.20;99.90;;;;;;4264289;27;20121;-51
2023/11/09 01:27:09;;;;;;;1.10;0.65;;;12.20;99.90;;;;;;4264460;27;20045;-53
2023/11/09 01:29:13;;;;;;;2.30;0.80;;;12.30;99.90;;;;;;4264432;27;20042;-53
2023/11/09 01:31:15;;;;;;;7.72;0.88;;;12.30;99.90;;;;;;4264246;27;20516;-51
2023/11/09 01:33:17;;;;;;;1.63;0.63;;;12.30;99.90;;;;;;4264601;27;20050;-53
2023/11/09 01:35:19;;;;;;;1.63;0.80;;;12.30;99.90;;;;;;4264472;27;20043;-52
2023/11/09 01:37:21;;;;;;;2.05;0.77;;;12.30;99.90;;;;;;4263888;27;20043;-52
2023/11/09 01:39:24;;;;;;;0.93;0.60;;;12.30;99.90;;;;;;4264400;27;20099;-53
2023/11/09 01:41:26;;;;;;;2.63;0.60;;;12.30;99.90;;;;;;4264414;27;20134;-52
2023/11/09 01:43:28;;;;;;;1.20;0.70;;;12.30;99.90;;;;;;4264346;27;20129;-52
2023/11/09 01:45:31;;;;;;;1.98;0.80;;;12.30;99.90;;;;;;4264325;27;20486;-53
2023/11/09 01:47:34;;;;;;;1.83;0.85;;;12.30;99.90;;;;;;4264497;27;20039;-54
2023/11/09 01:49:37;;;;;;;0.93;0.80;;;12.30;99.90;;;;;;4264700;27;20050;-54
2023/11/09 01:51:43;;;;;;;3.97;0.70;;;12.40;99.90;;;;;;4264213;27;20042;-56
2023/11/09 01:53:45;;;;;;;1.45;0.80;;;12.40;99.90;;;;;;4264147;27;20142;-55
2023/11/09 01:55:48;;;;;;;1.63;0.77;;;12.40;99.90;;;;;;4264670;27;20051;-60
2023/11/09 01:57:51;;;;;;;0.75;0.47;;;12.40;99.90;;;;;;4265406;27;20049;-55
2023/11/09 01:59:55;;;;;;;2.63;0.90;;;12.40;99.90;;;;;;4264482;27;20043;-56
2023/11/09 02:02:00;;;;;;;0.93;0.75;;;12.50;99.90;;;;;;4264548;27;20062;-57
2023/11/09 02:04:03;;;;;;;1.23;0.73;;;12.40;99.90;;;;;;4266792;27;20056;-56
2023/11/09 02:06:09;;;;;;;1.20;0.60;;;12.40;99.90;;;;;;4268836;27;20157;-59
2023/11/09 02:08:11;;;;;;;0.77;0.60;;;12.50;99.90;;;;;;4268030;27;20053;-59
2023/11/09 02:10:13;;;;;;;1.15;0.60;;;12.50;99.90;;;;;;4268072;27;20091;-66
2023/11/09 02:12:16;;;;;;;1.55;0.90;;;12.50;99.90;;;;;;4267492;27;20057;-55
2023/11/09 02:14:19;;;;;;;1.45;0.75;;;12.40;99.90;;;;;;4267114;27;20121;-55
2023/11/09 02:16:21;;;;;;;2.47;0.55;;;12.40;99.90;;;;;;4266936;27;20070;-55
2023/11/09 02:18:26;;;;;;;1.25;0.52;;;12.40;99.90;;;;;;4267287;27;20421;-55
2023/11/09 02:20:29;;;;;;;0.77;0.60;;;12.50;99.90;;;;;;4266866;27;20051;-55
2023/11/09 02:22:35;;;;;;;0.90;0.50;;;12.50;99.90;;;;;;4267060;27;20047;-54
2023/11/09 02:24:38;;;;;;;1.42;0.40;;;12.50;99.90;;;;;;4266930;27;20073;-57
2023/11/09 02:26:40;;;;;;;1.13;0.52;;;12.50;99.90;;;;;;4267584;27;20074;-59
2023/11/09 02:28:46;;;;;;;3.13;0.60;;;12.50;99.90;;;;;;4266846;27;20126;-54
2023/11/09 02:30:51;;;;;;;5.75;1.30;;;12.50;99.90;;;;;;4266439;27;20125;-54
2023/11/09 02:32:53;;;;;;;7.35;2.08;;;12.50;99.90;;;;;;4266921;27;20429;-54
2023/11/09 02:34:56;;;;;;;13.80;2.67;;;12.40;99.90;;;;;;4247729;27;20099;-54
2023/11/09 02:36:59;;;;;;;10.95;2.38;;;12.40;99.90;;;;;;4266826;27;20078;-54
2023/11/09 02:39:01;;;;;;;12.90;2.38;;;12.40;99.90;;;;;;4266634;27;20066;-55
2023/11/09 02:41:06;;;;;;;8.27;1.98;;;12.40;99.90;;;;;;4266811;27;20047;-55
2023/11/09 02:43:08;;;;;;;12.45;2.20;;;12.40;99.90;;;;;;4266623;27;20050;-55
2023/11/09 02:45:10;;;;;;;11.15;2.53;;;12.40;99.90;;;;;;4266543;27;20043;-56
2023/11/09 02:47:12;;;;;;;10.93;2.35;;;12.40;99.90;;;;;;4266541;27;20047;-54
2023/11/09 02:49:14;;;;;;;15.10;2.50;;;12.40;99.90;;;;;;4266142;27;20133;-54
2023/11/09 02:51:16;;;;;;;10.43;2.88;;;12.40;99.90;;;;;;4266225;27;20050;-54
2023/11/09 02:53:18;;;;;;;15.77;2.75;;;12.40;99.90;;;;;;4266637;27;20047;-54
2023/11/09 02:55:20;;;;;;;8.43;2.22;;;12.30;99.90;;;;;;4266475;27;20043;-56
2023/11/09 02:57:24;;;;;;;11.73;2.55;;;12.30;99.90;;;;;;4266566;27;20046;-54
2023/11/09 02:59:26;;;;;;;13.00;2.28;;;12.40;99.90;;;;;;4266219;27;20188;-63
2023/11/09 03:01:28;;;;;;;9.43;2.58;;;12.40;99.90;;;;;;4266466;27;20050;-53
2023/11/09 03:03:30;;;;;;;13.43;3.17;;;12.50;99.90;;;;;;4265578;27;20078;-54
2023/11/09 03:05:32;;;;;;;15.65;3.38;;;12.50;99.90;;;;;;4266180;27;20511;-55
2023/11/09 03:07:35;;;;;;;9.93;2.58;;;12.40;99.90;;;;;;4266051;27;20046;-54
2023/11/09 03:09:37;;;;;;;20.05;3.60;;;12.50;99.90;;;;;;4266268;27;20091;-54
2023/11/09 03:11:40;;;;;;;9.40;2.75;;;12.50;99.90;;;;;;4266400;27;20050;-54
2023/11/09 03:13:44;;;;;;;13.25;3.33;;;12.50;99.90;;;;;;4265862;27;20047;-57
2023/11/09 03:15:47;;;;;;;10.57;3.28;;;12.40;99.90;;;;;;4266010;27;20081;-57
2023/11/09 03:17:49;;;;;;;12.80;3.13;;;12.40;99.90;;;;;;4247366;27;20224;-55
2023/11/09 03:19:51;;;;;;;15.68;2.92;;;12.50;99.90;;;;;;4265827;27;20043;-54
2023/11/09 03:21:53;;;;;;;12.50;3.03;;;12.50;99.90;;;;;;4265845;27;20408;-54
2023/11/09 03:23:55;;;;;;;14.23;2.80;;;12.50;99.90;;;;;;4265707;27;20039;-54
2023/11/09 03:25:57;;;;;;;9.85;2.28;;;12.50;99.90;;;;;;4265685;27;20046;-55
2023/11/09 03:28:00;;;;;;;12.20;2.97;;;12.60;99.90;;;;;;4265753;27;20043;-54
2023/11/09 03:30:04;;;;;;;12.93;2.60;;;12.60;99.90;;;;;;4265848;27;20039;-54
2023/11/09 03:32:08;;;;;;;14.82;3.20;;;12.60;99.90;;;;;;4265513;27;20061;-53
2023/11/09 03:34:11;;;;;;;9.48;2.33;;;12.50;99.90;;;;;;4265261;27;20111;-54
2023/11/09 03:36:17;;;;;;;10.43;3.75;;;12.50;99.90;;;;;;4265608;27;20190;-54
2023/11/09 03:38:19;;;;;;;12.38;2.90;;;12.50;99.90;;;;;;4265429;27;20046;-54
2023/11/09 03:40:21;;;;;;;15.38;3.92;;;12.50;99.90;;;;;;4265786;27;20049;-54
2023/11/09 03:42:24;;;;;;;12.98;3.15;;;12.50;99.90;;;;;;4265348;27;20095;-54
2023/11/09 03:44:31;;;;;;;12.63;2.97;;;12.50;99.90;;;;;;4265377;27;20046;-54
2023/11/09 03:46:35;;;;;;;9.95;2.67;;;12.50;99.90;;;;;;4265641;27;20091;-55
2023/11/09 03:48:37;;;;;;;12.20;2.55;;;12.50;99.90;;;;;;4264941;27;20050;-54
2023/11/09 03:50:39;;;;;;;12.52;2.65;;;12.50;99.90;;;;;;4265164;27;20045;-54
2023/11/09 03:52:41;;;;;;;12.70;2.97;;;12.60;99.90;;;;;;4247742;27;20061;-55
2023/11/09 03:54:43;;;;;;;19.38;5.40;;;12.50;99.90;;;;;;4265444;27;20047;-54
2023/11/09 03:56:45;;;;;;;16.88;5.90;;;12.40;99.90;;;;;;4265106;27;20039;-53
2023/11/09 03:58:47;;;;;;;22.48;6.70;;;12.40;99.90;;;;;;4265182;27;20053;-56
2023/11/09 04:00:49;;;;;;;19.92;6.88;;;12.40;99.90;;;;;;4264966;27;20412;-55
2023/11/09 04:02:53;;;;;;;19.80;7.35;;;12.40;99.90;;;;;;4264575;27;20055;-54
2023/11/09 04:04:55;;;;;;;18.67;6.45;;;12.40;99.90;;;;;;4265284;27;20038;-54
2023/11/09 04:06:58;;;;;;;15.50;5.85;;;12.50;99.90;;;;;;4265110;27;20125;-54
2023/11/09 04:09:02;;;;;;;15.25;5.60;;;12.50;99.90;;;;;;4246751;27;20042;-54
2023/11/09 04:11:05;;;;;;;16.08;5.68;;;12.40;99.90;;;;;;4265296;27;20046;-54
2023/11/09 04:13:07;;;;;;;19.35;7.28;;;12.50;99.90;;;;;;4264975;27;20099;-54
2023/11/09 04:15:10;;;;;;;16.52;6.22;;;12.60;99.90;;;;;;4264948;27;20111;-55
2023/11/09 04:17:12;;;;;;;16.33;5.28;;;12.50;99.90;;;;;;4264871;27;20047;-54
2023/11/09 04:19:19;;;;;;;17.35;7.63;;;12.40;99.90;;;;;;4265137;27;20442;-53
2023/11/09 04:21:22;;;;;;;19.65;5.00;;;12.40;99.90;;;;;;4246619;27;20049;-55
2023/11/09 04:23:24;;;;;;;14.82;4.88;;;12.40;99.90;;;;;;4265173;27;20074;-56
2023/11/09 04:25:26;;;;;;;16.88;5.40;;;12.50;99.90;;;;;;4246691;27;20076;-56
2023/11/09 04:27:28;;;;;;;18.15;4.72;;;12.50;99.90;;;;;;4245925;27;20142;-54
2023/11/09 04:29:30;;;;;;;15.82;4.25;;;12.50;99.90;;;;;;4264928;27;20042;-54
2023/11/09 04:31:32;;;;;;;17.20;4.15;;;12.50;99.90;;;;;;4264754;27;20131;-55
2023/11/09 04:33:35;;;;;;;17.90;4.45;;;12.60;99.90;;;;;;4265038;27;20281;-56
2023/11/09 04:35:41;;;;;;;21.75;3.80;;;12.50;99.90;;;;;;4264521;27;20047;-55
2023/11/09 04:37:44;;;;;;;13.98;3.88;;;12.40;99.90;;;;;;4264983;27;20043;-54
2023/11/09 04:39:46;;;;;;;16.55;3.30;;;12.50;99.90;;;;;;4264795;27;20050;-54
2023/11/09 04:41:48;;;;;;;25.30;3.53;;;12.40;99.90;;;;;;4264913;27;20050;-54
2023/11/09 04:43:54;;;;;;;19.88;3.80;;;12.40;99.90;;;;;;4264847;27;20130;-55
2023/11/09 04:46:05;;;;;;;20.35;4.00;;;12.40;99.90;;;;;;4264369;27;20042;-55
2023/11/09 04:48:09;;;;;;;13.77;3.13;;;12.50;99.90;;;;;;4264629;27;20046;-59
2023/11/09 04:50:17;;;;;;;17.98;3.30;;;12.40;99.90;;;;;;4264992;27;20390;-54
2023/11/09 04:52:25;;;;;;;11.38;3.42;;;12.40;99.90;;;;;;4264686;27;20077;-56
2023/11/09 04:54:34;;;;;;;19.15;3.80;;;12.50;99.90;;;;;;4264562;27;20054;-54
2023/11/09 04:56:42;;;;;;;9.18;2.63;;;12.60;99.90;;;;;;4264844;27;20099;-55
2023/11/09 04:58:47;;;;;;;14.40;3.50;;;12.60;99.90;;;;;;4264723;27;20038;-54
2023/11/09 05:07:53;;;;;;;19.35;4.40;;;12.50;99.90;;;;;;4264461;27;20046;-58
2023/11/09 05:09:56;;;;;;;19.15;4.85;;;12.40;99.90;;;;;;4264419;27;20117;-55
2023/11/09 05:11:59;;;;;;;19.50;5.28;;;12.40;99.90;;;;;;4264351;27;20050;-53
2023/11/09 05:14:01;;;;;;;15.65;4.20;;;12.40;99.90;;;;;;4264335;27;20047;-55
2023/11/09 05:16:06;;;;;;;21.75;5.00;;;12.40;99.90;;;;;;4264547;27;20053;-54
2023/11/09 05:18:08;;;;;;;14.10;3.63;;;12.40;99.90;;;;;;4264395;27;20047;-55
2023/11/09 05:20:11;;;;;;;15.30;3.67;;;12.40;99.90;;;;;;4264545;27;20066;-54
2023/11/09 05:22:13;;;;;;;20.20;3.95;;;12.40;99.90;;;;;;4264267;27;20419;-54
2023/11/09 05:24:17;;;;;;;16.40;3.67;;;12.30;99.90;;;;;;4264297;27;20070;-54
2023/11/09 05:26:19;;;;;;;19.05;4.88;;;12.30;99.90;;;;;;4264017;27;20043;-54
2023/11/09 05:28:22;;;;;;;17.50;3.78;;;12.10;99.90;;;;;;4264153;27;20099;-54
2023/11/09 05:30:24;;;;;;;19.92;4.00;;;12.10;99.90;;;;;;4264180;27;20043;-54
2023/11/09 05:32:26;;;;;;;21.92;4.20;;;12.10;99.90;;;;;;4264149;27;20125;-54
2023/11/09 05:34:28;;;;;;;16.38;4.50;;;12.10;99.90;;;;;;4264533;27;20099;-54
2023/11/09 05:36:34;;;;;;;14.57;3.72;;;12.00;99.90;;;;;;4264387;27;20043;-58
2023/11/09 05:38:37;;;;;;;21.08;3.75;;;12.10;99.90;;;;;;4265907;27;20043;-55
2023/11/09 05:40:42;;;;;;;21.42;3.97;;;12.10;99.90;;;;;;4268319;27;20049;-56
2023/11/09 05:42:45;;;;;;;20.25;4.25;;;12.10;99.90;;;;;;4267669;27;20113;-53
2023/11/09 05:44:48;;;;;;;19.65;3.72;;;12.00;99.90;;;;;;4267012;27;20042;-55
2023/11/09 05:46:50;;;;;;;23.27;4.43;;;12.00;99.90;;;;;;4267418;27;20409;-54
2023/11/09 05:48:52;;;;;;;15.75;3.97;;;12.00;99.90;;;;;;4267502;27;20043;-55
2023/11/09 05:50:56;;;;;;;14.48;3.80;;;12.00;99.90;;;;;;4267307;27;20042;-55
2023/11/09 05:52:58;;;;;;;22.67;4.93;;;12.00;99.90;;;;;;4267437;27;20078;-54
2023/11/09 05:55:00;;;;;;;20.92;4.60;;;12.00;99.90;;;;;;4267420;27;20049;-55
2023/11/09 05:57:04;;;;;;;18.38;3.90;;;12.00;99.90;;;;;;4267256;27;20043;-55
2023/11/09 05:59:06;;;;;;;16.90;3.97;;;12.00;99.90;;;;;;4266907;27;20050;-55
2023/11/09 06:01:08;;;;;;;21.73;5.00;;;12.10;99.90;;;;;;4267254;27;20051;-54
2023/11/09 06:03:11;;;;;;;23.40;5.20;;;12.10;99.90;;;;;;4266840;27;20057;-54
2023/11/09 06:05:14;;;;;;;25.88;5.55;;;12.10;99.90;;;;;;4267033;27;20554;-54
2023/11/09 06:07:16;;;;;;;21.20;4.43;;;12.00;99.90;;;;;;4267130;27;20504;-54
2023/11/09 06:09:19;;;;;;;20.90;4.57;;;12.00;99.90;;;;;;4266943;27;20054;-60
2023/11/09 06:11:21;;;;;;;25.20;5.05;;;12.00;99.90;;;;;;4267093;27;20039;-54
2023/11/09 06:13:24;;;;;;;23.63;4.65;;;12.00;99.90;;;;;;4266815;27;20382;-53
2023/11/09 06:15:26;;;;;;;17.77;4.00;;;12.00;99.90;;;;;;4266940;27;20485;-55
2023/11/09 06:17:28;;;;;;;18.20;4.30;;;12.00;99.90;;;;;;4266917;27;20070;-54
2023/11/09 06:19:32;;;;;;;18.45;4.18;;;12.00;99.90;;;;;;4266893;27;20074;-55
2023/11/09 06:21:35;;;;;;;16.13;4.30;;;12.00;99.90;;;;;;4266768;27;20129;-55
2023/11/09 06:23:37;;;;;;;18.17;3.65;;;12.10;99.90;;;;;;4267035;27;20114;-60
2023/11/09 06:25:40;;;;;;;19.00;4.43;;;12.00;99.90;;;;;;4266606;27;20078;-54
2023/11/09 06:27:44;;;;;;;16.35;4.25;;;12.00;99.90;;;;;;4266444;27;20046;-55
2023/11/09 06:29:47;;;;;;;22.02;4.20;;;12.10;99.90;;;;;;4266953;27;20062;-54
2023/11/09 06:31:51;;;;;;;26.00;4.35;;;12.00;99.90;;;;;;4267040;27;20046;-60
2023/11/09 06:33:54;;;;;;;20.13;4.30;;;12.00;99.90;;;;;;4267078;27;20050;-65
2023/11/09 06:35:56;;;;;;;21.33;4.07;;;11.90;99.90;;;;;;4266731;27;20047;-55
2023/11/09 06:37:58;;;;;;;14.45;4.00;;;11.90;99.90;;;;;;4266523;27;20043;-54
2023/11/09 06:40:10;;;;;;;17.25;4.10;;;12.00;99.90;;;;;;4266357;27;20047;-54
2023/11/09 06:42:15;;;;;;;15.63;3.58;;;12.00;99.90;;;;;;4266494;27;20066;-55
2023/11/09 06:44:18;;;;;;;20.98;4.82;;;11.90;99.90;;;;;;4266462;27;20043;-55
2023/11/09 06:46:23;;;;;;;18.77;3.50;;;11.90;99.90;;;;;;4266457;27;20105;-54
2023/11/09 06:48:25;;;;;;;18.27;3.70;;;11.90;99.90;;;;;;4266160;27;20450;-56
2023/11/09 06:50:27;;;;;;;19.25;3.63;;;11.90;99.90;;;;;;4247675;27;20079;-54
2023/11/09 06:52:29;;;;;;;19.45;3.88;;;11.90;99.90;;;;;;4266240;27;20043;-54
2023/11/09 06:54:34;;;;;;;20.48;3.72;;;11.90;99.90;;;;;;4266232;27;20070;-56
2023/11/09 06:56:37;;;;;;;21.20;4.82;;;11.90;99.90;;;;;;4265977;27;20058;-54
2023/11/09 06:58:39;;;;;;;16.50;3.97;;;11.90;99.90;;;;;;4266211;27;20439;-55
2023/11/09 07:00:41;;;;;;;19.92;4.38;;;11.90;99.90;;;;;;4266556;27;20042;-54
2023/11/09 07:02:47;;;;;;;19.55;4.40;;;11.90;99.90;;;;;;4266265;27;20050;-54
2023/11/09 07:04:49;;;;;;;20.02;4.43;;;11.90;99.90;;;;;;4266379;27;20066;-55
2023/11/09 07:06:51;;;;;;;20.48;4.10;;;11.90;99.90;;;;;;4266257;27;20099;-55
2023/11/09 07:08:54;;;;;;;19.20;4.30;;;11.90;99.90;;;;;;4266498;27;20078;-57
2023/11/09 07:10:57;;;;;;;17.08;4.60;;;11.90;99.90;;;;;;4265973;27;20095;-54
2023/11/09 07:13:00;;;;;;;20.13;4.47;;;11.90;99.90;;;;;;4266216;27;20046;-55
2023/11/09 07:15:03;;;;;;;16.85;3.97;;;11.80;99.90;;;;;;4266058;27;20042;-55
2023/11/09 07:17:06;;;;;;;18.88;4.65;;;11.80;99.90;;;;;;4266069;27;20057;-55
2023/11/09 07:19:10;;;;;;;15.15;3.80;;;11.80;99.90;;;;;;4266047;27;20095;-53
2023/11/09 07:21:12;;;;;;;19.05;4.35;;;11.80;99.90;;;;;;4266280;27;20047;-54
2023/11/09 07:23:14;;;;;;;17.08;3.78;;;11.80;99.90;;;;;;4266528;27;20050;-57
2023/11/09 07:25:16;;;;;;;17.17;3.63;;;11.80;99.90;;;;;;4266346;27;20049;-56
2023/11/09 07:27:19;;;;;;;18.40;3.72;;;11.80;99.90;;;;;;4265786;27;20111;-57
2023/11/09 07:29:22;;;;;;;15.68;3.78;;;11.80;99.90;;;;;;4265872;27;20069;-55
2023/11/09 07:31:24;;;;;;;21.58;4.22;;;11.90;99.90;;;;;;4265828;27;20050;-55
2023/11/09 07:33:26;;;;;;;15.52;3.58;;;11.80;99.90;;;;;;4265618;27;20107;-54
2023/11/09 07:35:29;;;;;;;16.85;3.90;;;11.80;99.90;;;;;;4247406;27;20130;-55
2023/11/09 07:37:32;;;;;;;16.98;4.25;;;11.80;99.90;;;;;;4265769;27;20042;-55
2023/11/09 07:39:35;;;;;;;17.67;3.63;;;11.80;99.90;;;;;;4265552;27;20107;-53
2023/11/09 07:41:38;;;;;;;16.70;4.50;;;11.80;99.90;;;;;;4265767;27;20053;-54
2023/11/09 07:43:42;;;;;;;14.52;3.47;;;11.80;99.90;;;;;;4265607;27;20046;-55
2023/11/09 07:45:44;;;;;;;15.02;3.05;;;11.80;99.90;;;;;;4265507;27;20373;-54
2023/11/09 07:47:47;;;;;;;17.00;3.88;;;11.80;99.90;;;;;;4265572;27;20051;-55
2023/11/09 07:49:50;;;;;;;24.60;4.32;;;11.90;99.90;;;;;;4265319;27;20106;-55
2023/11/09 07:51:53;;;;;;;21.92;3.25;;;11.80;99.90;;;;;;4265460;27;20042;-54
2023/11/09 07:53:55;;;;;;;16.77;3.78;;;11.80;99.90;;;;;;4265258;27;20511;-54
2023/11/09 07:55:57;;;;;;;17.10;4.03;;;11.80;99.90;;;;;;4265325;27;20042;-55
2023/11/09 07:58:05;;;;;;;16.45;3.97;;;11.90;99.90;;;;;;4265540;27;20307;-55
2023/11/09 08:00:11;;;;;;;18.73;3.95;;;11.80;99.90;;;;;;4265160;27;20047;-58
2023/11/09 08:02:13;;;;;;;20.65;4.20;;;11.90;99.90;;;;;;4264308;27;20058;-54
2023/11/09 08:04:15;;;;;;;20.42;3.80;;;11.90;99.90;;;;;;4265349;27;20047;-52
2023/11/09 08:06:17;;;;;;;17.27;2.88;;;11.90;99.90;;;;;;4265556;27;20055;-51
2023/11/09 08:08:20;;;;;;;17.25;3.35;;;11.90;99.90;;;;;;4265230;27;20054;-52
2023/11/09 08:10:24;;;;;;;14.30;3.33;;;11.90;99.90;;;;;;4265883;27;20047;-53
2023/11/09 08:12:26;;;;;;;20.88;4.15;;;11.90;99.90;;;;;;4265531;27;20065;-52
2023/11/09 08:14:28;;;;;;;21.45;4.32;;;12.00;99.90;;;;;;4265310;27;20042;-53
2023/11/09 08:16:31;;;;;;;11.02;3.33;;;12.10;99.90;;;;;;4265196;27;20129;-55
2023/11/09 08:18:34;;;;;;;14.43;3.60;;;12.20;99.90;;;;;;4265179;27;20382;-58
2023/11/09 08:20:36;;;;;;;22.63;4.55;;;12.20;99.90;;;;;;4265295;27;20042;-56
2023/11/09 08:22:41;;;;;;;18.92;3.60;;;12.20;99.90;;;;;;4265321;27;20126;-53
2023/11/09 08:24:44;;;;;;;19.65;4.28;;;12.40;99.90;;;;;;4265231;27;20397;-54
2023/11/09 08:26:48;;;;;;;18.10;3.83;;;12.40;99.90;;;;;;4265175;27;20054;-52
2023/11/09 08:28:51;;;;;;;20.67;4.07;;;12.50;99.90;;;;;;4265030;27;20130;-53
2023/11/09 08:30:53;;;;;;;22.23;3.38;;;12.50;99.90;;;;;;4264860;27;20447;-52
2023/11/09 08:32:56;;;;;;;20.27;4.68;;;12.60;99.90;;;;;;4264868;27;20070;-52
2023/11/09 08:34:58;;;;;;;13.25;4.32;;;12.60;99.90;;;;;;4264629;27;20500;-52
2023/11/09 08:37:00;;;;;;;14.25;3.50;;;12.70;99.90;;;;;;4264767;27;20485;-52
2023/11/09 08:39:03;;;;;;;21.95;3.80;;;12.70;99.90;;;;;;4264722;27;20043;-53
2023/11/09 08:41:07;;;;;;;17.00;3.80;;;12.80;99.90;;;;;;4264963;27;20183;-52
2023/11/09 08:43:10;;;;;;;19.33;4.00;;;12.80;99.90;;;;;;4264730;27;20038;-56
2023/11/09 08:45:12;;;;;;;20.88;4.15;;;12.70;99.90;;;;;;4264862;27;20038;-52
2023/11/09 08:47:14;;;;;;;15.75;4.22;;;12.80;99.90;;;;;;4264896;27;20062;-52
2023/11/09 08:49:18;;;;;;;30.55;4.20;;;12.80;99.90;;;;;;4264943;27;20448;-52
2023/11/09 08:51:20;;;;;;;24.73;4.95;;;12.70;99.90;;;;;;4264811;27;20042;-54
2023/11/09 08:53:22;;;;;;;15.80;4.03;;;12.70;99.90;;;;;;4264828;27;20057;-51
2023/11/09 08:55:25;;;;;;;20.40;4.32;;;12.80;99.90;;;;;;4265026;27;20443;-51
2023/11/09 08:57:31;;;;;;;17.10;4.20;;;12.80;99.90;;;;;;4264804;27;20382;-51
2023/11/09 08:59:34;;;;;;;20.40;4.53;;;12.80;99.90;;;;;;4264505;27;20035;-57
2023/11/09 09:01:36;;;;;;;20.52;4.55;;;12.90;99.90;;;;;;4264542;27;20122;-52
2023/11/09 09:03:38;;;;;;;16.13;3.85;;;12.90;99.90;;;;;;4263345;27;20057;-52
2023/11/09 09:05:41;;;;;;;20.92;4.93;;;12.90;99.90;;;;;;4264650;27;20126;-51
2023/11/09 09:07:44;;;;;;;21.42;4.57;;;12.80;99.90;;;;;;4264307;27;20439;-52
2023/11/09 09:09:47;;;;;;;19.25;4.38;;;12.80;99.90;;;;;;4264622;27;20054;-54
2023/11/09 09:11:51;;;;;;;20.75;4.28;;;12.80;99.90;;;;;;4264510;27;20178;-51
2023/11/09 09:13:54;;;;;;;21.83;3.53;;;12.70;99.90;;;;;;4267928;27;20401;-53
2023/11/09 09:15:56;;;;;;;23.13;5.55;;;12.60;99.90;;;;;;4268085;27;20505;-52
2023/11/09 09:17:59;;;;;;;17.73;4.00;;;12.70;99.90;;;;;;4268584;27;20821;-55
2023/11/09 09:20:02;;;;;;;14.85;3.97;;;12.70;99.90;;;;;;4268605;27;20161;-65
2023/11/09 09:22:05;;;;;;;22.90;4.85;;;12.70;99.90;;;;;;4268103;27;20042;-57
2023/11/09 09:24:09;;;;;;;16.50;4.18;;;12.60;99.90;;;;;;4268219;27;20088;-53
2023/11/09 09:26:11;;;;;;;22.85;5.07;;;12.60;99.90;;;;;;4268404;27;20043;-51
2023/11/09 09:28:19;;;;;;;23.05;4.60;;;12.70;99.90;;;;;;4268197;27;20083;-57
2023/11/09 09:30:25;;;;;;;23.05;5.15;;;12.70;99.90;;;;;;4268312;27;20057;-55
2023/11/09 09:32:27;;;;;;;17.10;4.20;;;12.80;99.90;;;;;;4267777;27;20121;-68
2023/11/09 09:34:29;;;;;;;22.38;4.15;;;12.80;99.90;;;;;;4267743;27;20045;-54
2023/11/09 09:36:33;;;;;;;21.42;4.78;;;12.80;99.90;;;;;;4267429;27;20394;-53
2023/11/09 09:38:36;;;;;;;19.23;4.20;;;12.80;99.90;;;;;;4267889;27;20050;-54
2023/11/09 09:40:39;;;;;;;25.77;4.97;;;13.00;99.90;;;;;;4267606;27;20391;-54
2023/11/09 09:42:53;;;;;;;26.88;5.22;;;13.00;99.90;;;;;;4267501;27;20134;-54
2023/11/09 09:44:57;;;;;;;21.50;4.25;;;13.00;99.90;;;;;;4267462;27;20142;-53
2023/11/09 09:47:02;;;;;;;14.07;3.60;;;12.80;99.90;;;;;;4267339;27;20043;-53
2023/11/09 09:49:04;;;;;;;20.60;4.35;;;12.90;99.90;;;;;;4267327;27;20042;-54
2023/11/09 09:51:09;;;;;;;25.63;4.47;;;13.00;99.90;;;;;;4248826;27;20049;-53
2023/11/09 09:53:12;;;;;;;20.73;4.78;;;13.10;99.90;;;;;;4267149;27;20054;-53
2023/11/09 09:55:18;;;;;;;24.63;3.78;;;13.10;99.90;;;;;;4267367;27;20043;-54
2023/11/09 09:57:20;;;;;;;20.33;4.53;;;13.00;99.90;;;;;;4267659;27;20038;-59
2023/11/09 09:59:23;;;;;;;14.60;3.92;;;13.00;99.90;;;;;;4267760;27;20046;-55
2023/11/09 10:01:27;;;;;;;20.55;4.57;;;12.90;99.90;;;;;;4267330;27;20047;-54
2023/11/09 10:03:33;;;;;;;16.52;4.68;;;12.90;99.90;;;;;;4267081;27;20050;-54
2023/11/09 10:05:39;;;;;;;20.40;3.95;;;12.90;99.90;;;;;;4267173;27;20614;-54
2023/11/09 10:08:03;;;;;;;20.60;3.88;;;13.20;99.90;;;;;;4267150;27;20091;-54
2023/11/09 10:10:07;;;;;;;17.45;3.63;;;13.50;99.90;;;;;;4260725;27;20050;-54
2023/11/09 10:12:09;;;;;;;13.75;3.88;;;13.60;99.90;;;;;;4267142;27;20047;-54
2023/11/09 10:14:11;;;;;;;18.95;4.13;;;13.70;99.90;;;;;;4262773;27;20046;-55
2023/11/09 10:16:14;;;;;;;25.38;4.95;;;13.60;99.80;;;;;;4262305;27;20477;-54
2023/11/09 10:18:16;;;;;;;20.80;4.43;;;13.70;99.90;;;;;;4259722;27;20062;-52
2023/11/09 10:20:20;;;;;;;15.73;4.60;;;13.60;99.90;;;;;;4261736;27;20403;-52
2023/11/09 10:22:23;;;;;;;19.25;4.90;;;13.40;99.90;;;;;;4243469;27;20072;-52
2023/11/09 10:24:28;;;;;;;28.48;5.45;;;13.30;99.90;;;;;;4248598;27;20448;-52
2023/11/09 10:26:39;;;;;;;18.42;4.78;;;13.30;99.90;;;;;;4263176;27;20075;-52
2023/11/09 10:28:43;;;;;;;23.27;4.50;;;13.30;99.90;;;;;;4266783;27;20125;-51
2023/11/09 10:30:46;;;;;;;16.70;4.78;;;13.20;99.90;;;;;;4262053;27;20050;-52
2023/11/09 10:33:00;;;;;;;25.50;4.68;;;13.20;99.90;;;;;;4266575;27;20448;-54
2023/11/09 10:35:03;;;;;;;24.98;4.60;;;13.20;99.90;;;;;;4263295;27;20091;-55
2023/11/09 10:37:06;;;;;;;22.42;4.82;;;13.20;99.90;;;;;;4265680;27;20090;-51
2023/11/09 10:39:16;;;;;;;16.15;4.72;;;13.20;99.90;;;;;;4265956;27;20122;-52
2023/11/09 10:41:20;;;;;;;24.73;4.90;;;13.30;99.90;;;;;;4265791;27;20070;-53
2023/11/09 10:43:43;;;;;;;18.48;4.95;;;13.30;99.90;;;;;;4266015;27;20051;-52